Aeroboteco Virtual Airline

Aeroboteco Virtual Airlines! Uma nuvem a frente.



 INFORMAÇÕES METEOROLÓGICAS
METAR FOR LEIB
ADDS - METARS form results

(0950 UTC 16 January 2019)
Data provider http://aviationweather.gov/metar/data/
 
METAR text: LEIB 160930Z 19006KT 150V230 9999 BKN032 14/08 Q1020 NOSIG
Conditions at: LEIB (IBIZA/ES CODOLA , ES) observed 0930 UTC 16 January 2019
Temperature: 14.0°C (57°F)
Dewpoint: 8.0°C (46°F) [RH = 67%]
Pressure (altimeter): 30.12 inches Hg (1020.0 mb)
Winds: from the S (190 degrees) at 7 MPH (6 knots; 3.1 m/s)
Visibility: 6 or more miles (10+ km)
Ceiling: 3200 feet AGL
Clouds: broken clouds at 3200 feet AGL
Weather: no significant weather observed at this time

METAR text: LEIB 160900Z 20007KT 150V230 9999 BKN032 14/09 Q1020 NOSIG
Conditions at: LEIB (IBIZA/ES CODOLA , ES) observed 0900 UTC 16 January 2019
Temperature: 14.0°C (57°F)
Dewpoint: 9.0°C (48°F) [RH = 72%]
Pressure (altimeter): 30.12 inches Hg (1020.0 mb)
Winds: from the SSW (200 degrees) at 8 MPH (7 knots; 3.6 m/s)
Visibility: 6 or more miles (10+ km)
Ceiling: 3200 feet AGL
Clouds: broken clouds at 3200 feet AGL
Weather: no significant weather observed at this time

Forecast for: LEIB (IBIZA/ES CODOLA , ES)
Text: TAF LEIB 160800Z 1609/1709 18009KT 9999 SCT020 TX17/1612Z TN05/1706Z
Forecast period: 0900 UTC 16 January 2019 to 0900 UTC 17 January 2019
Forecast type: FROM: standard forecast or significant change
Winds: from the S (180 degrees) at 10 MPH (9 knots; 4.6 m/s)
Visibility: 6 or more miles 10+ km)
Ceiling: at least 12,000 feet AGL
Clouds: scattered clouds at 2000 feet AGL
Weather: no significant weather forecast for this period
Text: TEMPO 1610/1617 20012KT
Forecast period: 1000 to 1700 UTC 16 January 2019
Forecast type: TEMPORARY: The following changes expected for less than half the time period
Winds: from the SSW (200 degrees) at 14 MPH (12 knots; 6.2 m/s)
Visibility: missing
Ceiling: unknown
Clouds: missing
Weather: no significant weather forecast for this period

 MAPA DO AEROPORTO

 INFORMAÇÕES DA PISTA
Pista 06 Tamanho da pista 9186 ft Largura da pista 148 ft
Elevação da pista 13 ft Ranhura da pista 0 ft Proa da pista 62
Pista 24 Tamanho da pista 9186 ft Largura da pista 148 ft
Elevação da pista 16 ft Ranhura da pista 0 ft Proa da pista 242

 FREQUÊNCIAS DO AEROPORTO
Tipo APP Nome PALMA APP Frequência 118.125 MHZ
Tipo APP Nome APP Frequência 119.8 MHZ
Tipo ATIS Nome ATIS Frequência 117.8 MHZ
Tipo GND Nome GND Frequência 121.8 MHZ
Tipo TWR Nome TWR Frequência 118.5 MHZ

 AUXÍLIOS DE NAVEGAÇÃO PRÓXIMOS AO AEROPORTO
Tipo VOR-DME Nome Ibiza Frequência 117800 KHZ
Tipo NDB Nome Ibiza Frequência 394 KHZ